createdAt,value
2018-01-10T00:02:08.727Z,100403.75
2018-01-10T00:04:37.112Z,100397.36
2018-01-10T00:07:05.530Z,100400.52
2018-01-10T00:09:33.931Z,100393.73
2018-01-10T00:12:02.317Z,100383.37
2018-01-10T00:14:30.742Z,100382.14
2018-01-10T00:16:59.177Z,100383.32
2018-01-10T00:19:27.657Z,100390.92
2018-01-10T00:21:56.083Z,100395.05
2018-01-10T00:24:25.315Z,100391.67
2018-01-10T00:26:53.707Z,100389.13
2018-01-10T00:29:22.122Z,100388.06
2018-01-10T00:31:50.578Z,100382.59
2018-01-10T00:34:19.025Z,100385.35
2018-01-10T00:36:47.411Z,100379.06
2018-01-10T00:39:15.838Z,100375.28
2018-01-10T00:41:44.291Z,100383.95
2018-01-10T00:44:12.732Z,100384.98
2018-01-10T00:46:41.104Z,100390.68
2018-01-10T00:49:10.316Z,100399.80
2018-01-10T00:51:38.708Z,100397.94
2018-01-10T00:54:07.166Z,100392.30
2018-01-10T00:56:36.305Z,100379.72
2018-01-10T00:59:04.752Z,100386.17
2018-01-10T01:01:33.150Z,100400.71
2018-01-10T01:04:01.567Z,100413.09
2018-01-10T01:06:29.986Z,100417.50
2018-01-10T01:08:58.369Z,100415.81
2018-01-10T01:11:27.552Z,100404.20
2018-01-10T01:13:56.778Z,100399.63
2018-01-10T01:16:25.141Z,100395.88
2018-01-10T01:18:54.335Z,100402.03
2018-01-10T01:21:22.727Z,100401.72
2018-01-10T01:23:51.142Z,100404.91
2018-01-10T01:26:19.567Z,100400.17
2018-01-10T01:28:48.731Z,100401.13
2018-01-10T01:31:17.150Z,100406.87
2018-01-10T01:33:45.540Z,100403.98
2018-01-10T01:36:13.968Z,100401.81
2018-01-10T01:38:42.432Z,100407.02
2018-01-10T01:41:10.863Z,100409.52
2018-01-10T01:43:39.302Z,100415.06
2018-01-10T01:46:07.951Z,100423.42
2018-01-10T01:48:36.400Z,100421.32
2018-01-10T01:51:04.792Z,100423.11
2018-01-10T01:53:33.368Z,100426.38
2018-01-10T01:56:02.556Z,100422.94
2018-01-10T01:58:30.927Z,100427.75
2018-01-10T02:01:00.133Z,100431.73
2018-01-10T02:03:28.590Z,100432.32
2018-01-10T02:05:57.727Z,100431.29
2018-01-10T02:08:26.131Z,100430.88
2018-01-10T02:10:54.484Z,100422.80
2018-01-10T02:13:22.947Z,100415.33
2018-01-10T02:15:51.381Z,100418.15
2018-01-10T02:18:19.742Z,100415.50
2018-01-10T02:20:48.131Z,100411.30
2018-01-10T02:23:16.556Z,100410.52
2018-01-10T02:25:45.719Z,100414.16
2018-01-10T02:28:14.083Z,100406.91
2018-01-10T02:30:42.512Z,100403.48
2018-01-10T02:33:11.740Z,100404.33
2018-01-10T02:35:40.173Z,100399.16
2018-01-10T02:38:08.612Z,100386.48
2018-01-10T02:40:37.092Z,100379.18
2018-01-10T02:43:05.559Z,100383.20
2018-01-10T02:45:33.955Z,100383.03
2018-01-10T02:48:02.339Z,100387.59
2018-01-10T02:50:30.782Z,100387.64
2018-01-10T02:52:59.212Z,100398.30
2018-01-10T02:55:27.613Z,100397.86
2018-01-10T02:57:56.055Z,100397.31
2018-01-10T03:00:24.491Z,100400.69
2018-01-10T03:02:53.647Z,100396.87
2018-01-10T03:05:22.072Z,100394.33
2018-01-10T03:07:50.475Z,100391.55
2018-01-10T03:10:18.838Z,100392.44
2018-01-10T03:12:48.015Z,100395.77
2018-01-10T03:15:17.172Z,100385.47
2018-01-10T03:17:45.622Z,100394.09
2018-01-10T03:20:14.047Z,100392.00
2018-01-10T03:22:42.483Z,100397.50
2018-01-10T03:25:10.934Z,100392.72
2018-01-10T03:27:40.065Z,100399.03
2018-01-10T03:30:08.516Z,100397.97
2018-01-10T03:32:37.734Z,100393.75
2018-01-10T03:35:06.171Z,100392.51
2018-01-10T03:37:34.648Z,100386.52
2018-01-10T03:40:03.016Z,100391.05
2018-01-10T03:42:31.469Z,100389.20
2018-01-10T03:44:59.926Z,100384.62
2018-01-10T03:47:28.388Z,100391.78
2018-01-10T03:49:57.600Z,100398.42
2018-01-10T03:52:26.063Z,100393.06
2018-01-10T03:54:54.535Z,100396.25
2018-01-10T03:57:22.928Z,100392.72
2018-01-10T03:59:51.284Z,100382.27
2018-01-10T04:02:19.722Z,100385.33
2018-01-10T04:04:48.201Z,100373.09
2018-01-10T04:07:16.639Z,100373.70
2018-01-10T04:09:45.010Z,100368.69
2018-01-10T04:12:13.392Z,100383.08
2018-01-10T04:14:41.878Z,100377.44
2018-01-10T04:17:10.244Z,100376.02
2018-01-10T04:19:38.670Z,100372.83
2018-01-10T04:22:07.439Z,100365.84
2018-01-10T04:24:36.572Z,100377.72
2018-01-10T04:27:05.016Z,100370.64
2018-01-10T04:29:34.234Z,100367.67
2018-01-10T04:32:02.680Z,100369.97
2018-01-10T04:34:31.138Z,100375.70
2018-01-10T04:36:59.500Z,100361.76
2018-01-10T04:39:27.900Z,100359.29
2018-01-10T04:41:56.315Z,100365.97
2018-01-10T04:44:25.449Z,100365.84
2018-01-10T04:46:53.901Z,100368.11
2018-01-10T04:49:22.290Z,100372.65
2018-01-10T04:51:50.673Z,100363.15
2018-01-10T04:54:19.112Z,100371.22
2018-01-10T04:56:48.368Z,100394.14
2018-01-10T04:59:16.743Z,100391.44
2018-01-10T05:01:45.886Z,100383.08
2018-01-10T05:04:14.314Z,100374.20
2018-01-10T05:06:42.684Z,100375.59
2018-01-10T05:09:11.123Z,100362.24
2018-01-10T05:11:39.565Z,100359.57
2018-01-10T05:14:07.917Z,100359.91
2018-01-10T05:16:37.074Z,100346.47
2018-01-10T05:19:05.520Z,100362.02
2018-01-10T05:21:33.926Z,100361.83
2018-01-10T05:24:02.729Z,100355.89
2018-01-10T05:26:31.102Z,100358.61
2018-01-10T05:28:59.491Z,100358.16
2018-01-10T05:31:28.485Z,100366.91
2018-01-10T05:33:57.612Z,100361.02
2018-01-10T05:36:25.940Z,100344.98
2018-01-10T05:38:54.386Z,100336.00
2018-01-10T05:41:22.798Z,100351.33
2018-01-10T05:43:51.206Z,100375.41
2018-01-10T05:46:20.406Z,100370.47
2018-01-10T05:48:49.510Z,100370.57
2018-01-10T05:51:18.704Z,100380.23
2018-01-10T05:53:47.065Z,100381.98
2018-01-10T05:56:15.461Z,100388.43
2018-01-10T05:58:44.604Z,100367.96
2018-01-10T06:01:12.943Z,100366.69
2018-01-10T06:03:42.129Z,100371.88
2018-01-10T06:06:11.304Z,100381.15
2018-01-10T06:08:39.746Z,100382.67
2018-01-10T06:11:08.079Z,100379.61
2018-01-10T06:13:36.400Z,100382.87
2018-01-10T06:16:04.818Z,100382.36
2018-01-10T06:18:33.219Z,100372.44
2018-01-10T06:21:02.421Z,100374.06
2018-01-10T06:23:31.590Z,100370.69
2018-01-10T06:26:00.035Z,100366.64
2018-01-10T06:28:28.420Z,100364.89
2018-01-10T06:30:56.756Z,100369.11
2018-01-10T06:33:25.875Z,100375.80
2018-01-10T06:35:54.682Z,100368.18
2018-01-10T06:38:23.048Z,100368.05
2018-01-10T06:40:51.375Z,100369.85
2018-01-10T06:43:19.771Z,100370.76
2018-01-10T06:45:48.962Z,100371.28
2018-01-10T06:48:17.320Z,100379.27
2018-01-10T06:50:45.652Z,100373.69
2018-01-10T06:53:14.011Z,100372.28
2018-01-10T06:55:43.140Z,100382.61
2018-01-10T06:58:11.530Z,100383.84
2018-01-10T07:00:39.872Z,100389.77
2018-01-10T07:03:09.055Z,100398.59
2018-01-10T07:05:38.184Z,100394.57
2018-01-10T07:08:06.508Z,100394.77
2018-01-10T07:10:34.922Z,100391.11
2018-01-10T07:13:03.358Z,100395.92
2018-01-10T07:15:31.664Z,100394.11
2018-01-10T07:18:00.788Z,100400.02
2018-01-10T07:20:29.196Z,100404.06
2018-01-10T07:22:57.532Z,100407.81
2018-01-10T07:25:26.730Z,100410.01
2018-01-10T07:27:55.060Z,100408.50
2018-01-10T07:30:23.430Z,100408.72
2018-01-10T07:32:51.787Z,100410.94
2018-01-10T07:35:20.172Z,100407.78
2018-01-10T07:37:48.548Z,100423.42
2018-01-10T07:40:16.934Z,100428.31
2018-01-10T07:42:45.330Z,100423.86
2018-01-10T07:45:13.713Z,100426.90
2018-01-10T07:47:42.099Z,100424.59
2018-01-10T07:50:10.469Z,100426.34
2018-01-10T07:52:38.867Z,100433.41
2018-01-10T07:55:07.278Z,100426.28
2018-01-10T07:57:35.729Z,100426.61
2018-01-10T08:00:04.139Z,100432.25
2018-01-10T08:02:32.490Z,100434.41
2018-01-10T08:05:00.848Z,100439.52
2018-01-10T08:07:29.234Z,100431.70
2018-01-10T08:09:57.571Z,100434.26
2018-01-10T08:12:25.915Z,100428.09
2018-01-10T08:14:54.292Z,100439.22
2018-01-10T08:17:22.707Z,100436.57
2018-01-10T08:19:51.166Z,100440.77
2018-01-10T08:22:19.595Z,100435.23
2018-01-10T08:24:48.026Z,100423.72
2018-01-10T08:27:17.128Z,100421.81
2018-01-10T08:29:46.278Z,100417.76
2018-01-10T08:32:14.655Z,100419.00
2018-01-10T08:34:43.042Z,100412.30
2018-01-10T08:37:11.472Z,100426.58
2018-01-10T08:39:39.809Z,100419.44
2018-01-10T08:42:08.595Z,100422.50
2018-01-10T08:44:36.987Z,100420.63
2018-01-10T08:47:06.168Z,100424.55
2018-01-10T08:49:34.561Z,100424.34
2018-01-10T08:52:03.737Z,100430.21
2018-01-10T08:54:32.113Z,100430.73
2018-01-10T08:57:00.498Z,100436.05
2018-01-10T08:59:28.924Z,100441.72
2018-01-10T09:01:57.300Z,100436.16
2018-01-10T09:04:26.520Z,100437.47
2018-01-10T09:06:54.889Z,100435.52
2018-01-10T09:09:23.252Z,100432.42
2018-01-10T09:11:52.434Z,100420.83
2018-01-10T09:14:21.607Z,100425.20
2018-01-10T09:16:50.020Z,100428.49
2018-01-10T09:19:18.395Z,100429.22
2018-01-10T09:21:47.555Z,100428.38
2018-01-10T09:24:15.898Z,100441.73
2018-01-10T09:26:44.278Z,100436.53
2018-01-10T09:29:12.676Z,100437.81
2018-01-10T09:31:41.018Z,100435.62
2018-01-10T09:34:09.368Z,100434.55
2018-01-10T09:36:37.773Z,100431.22
2018-01-10T09:39:06.161Z,100426.30
2018-01-10T09:41:34.588Z,100431.98
2018-01-10T09:44:02.924Z,100431.83
2018-01-10T09:46:31.243Z,100425.45
2018-01-10T09:48:59.677Z,100424.26
2018-01-10T09:51:28.098Z,100425.77
2018-01-10T09:53:56.524Z,100419.81
2018-01-10T09:56:24.956Z,100414.59
2018-01-10T09:58:53.316Z,100412.02
2018-01-10T10:01:21.648Z,100410.83
2018-01-10T10:03:50.008Z,100416.19
2018-01-10T10:06:18.337Z,100412.08
2018-01-10T10:08:46.664Z,100409.69
2018-01-10T10:11:15.024Z,100407.54
2018-01-10T10:13:43.418Z,100410.05
2018-01-10T10:16:11.875Z,100396.86
2018-01-10T10:18:40.222Z,100401.98
2018-01-10T10:21:08.616Z,100392.02
2018-01-10T10:23:36.971Z,100387.17
2018-01-10T10:26:06.120Z,100396.05
2018-01-10T10:28:34.557Z,100388.00
2018-01-10T10:31:02.885Z,100384.57
2018-01-10T10:33:31.275Z,100378.11
2018-01-10T10:35:59.660Z,100380.68
2018-01-10T10:38:28.000Z,100385.67
2018-01-10T10:40:56.418Z,100379.50
2018-01-10T10:43:24.827Z,100377.92
2018-01-10T10:45:53.212Z,100374.89
2018-01-10T10:48:21.607Z,100382.78
2018-01-10T10:50:49.973Z,100385.46
2018-01-10T10:53:18.362Z,100371.92
2018-01-10T10:55:46.762Z,100368.81
2018-01-10T10:58:15.243Z,100370.28
2018-01-10T11:00:43.651Z,100360.00
2018-01-10T11:03:12.542Z,100359.67
2018-01-10T11:05:41.715Z,100357.21
2018-01-10T11:08:10.068Z,100358.48
2018-01-10T11:10:38.425Z,100356.89
2018-01-10T11:13:07.561Z,100361.48
2018-01-10T11:15:35.962Z,100360.22
2018-01-10T11:18:04.362Z,100357.61
2018-01-10T11:20:33.579Z,100353.63
2018-01-10T11:23:01.974Z,100352.09
2018-01-10T11:25:30.382Z,100348.20
2018-01-10T11:27:58.756Z,100338.98
2018-01-10T11:30:27.108Z,100332.47
2018-01-10T11:32:55.494Z,100338.25
2018-01-10T11:35:23.907Z,100334.48
2018-01-10T11:37:52.347Z,100327.42
2018-01-10T11:40:21.591Z,100329.27
2018-01-10T11:42:49.991Z,100331.19
2018-01-10T11:45:19.125Z,100338.28
2018-01-10T11:47:47.542Z,100333.33
2018-01-10T11:50:15.898Z,100335.46
2018-01-10T11:52:44.256Z,100336.36
2018-01-10T11:55:12.659Z,100344.79
2018-01-10T11:57:41.079Z,100342.56
2018-01-10T12:00:10.277Z,100347.02
2018-01-10T12:02:39.408Z,100346.81
2018-01-10T12:05:07.790Z,100349.75
2018-01-10T12:07:36.205Z,100350.16
2018-01-10T12:10:04.548Z,100346.72
2018-01-10T12:12:32.884Z,100350.13
2018-01-10T12:15:01.204Z,100355.83
2018-01-10T12:17:29.617Z,100350.06
2018-01-10T12:19:57.975Z,100334.77
2018-01-10T12:22:26.329Z,100334.10
2018-01-10T12:24:55.460Z,100330.58
2018-01-10T12:27:23.783Z,100328.00
2018-01-10T12:29:52.111Z,100325.52
2018-01-10T12:32:20.493Z,100320.45
2018-01-10T12:34:48.821Z,100320.25
2018-01-10T12:37:17.171Z,100314.52
2018-01-10T12:39:45.536Z,100316.22
2018-01-10T12:42:13.926Z,100318.02
2018-01-10T12:44:42.296Z,100317.06
2018-01-10T12:47:10.694Z,100307.24
2018-01-10T12:49:39.036Z,100302.81
2018-01-10T12:52:07.462Z,100313.74
2018-01-10T12:54:36.670Z,100316.61
2018-01-10T12:57:05.820Z,100319.73
2018-01-10T12:59:34.217Z,100318.93
2018-01-10T13:02:02.572Z,100318.20
2018-01-10T13:04:30.944Z,100319.80
2018-01-10T13:06:59.272Z,100312.05
2018-01-10T13:09:27.641Z,100318.91
2018-01-10T13:11:56.019Z,100322.29
2018-01-10T13:14:24.435Z,100323.04
2018-01-10T13:16:52.795Z,100318.55
2018-01-10T13:19:21.982Z,100321.29
2018-01-10T13:21:51.097Z,100318.43
2018-01-10T13:24:20.291Z,100320.39
2018-01-10T13:26:48.664Z,100320.27
2018-01-10T13:29:17.096Z,100316.28
2018-01-10T13:31:45.571Z,100314.58
2018-01-10T13:34:13.909Z,100317.22
2018-01-10T13:36:43.052Z,100324.13
2018-01-10T13:39:11.407Z,100332.10
2018-01-10T13:41:39.757Z,100328.13
2018-01-10T13:44:08.895Z,100335.77
2018-01-10T13:46:37.317Z,100333.62
2018-01-10T13:49:05.744Z,100331.77
2018-01-10T13:51:34.113Z,100325.78
2018-01-10T13:54:02.512Z,100328.81
2018-01-10T13:56:30.876Z,100329.41
2018-01-10T13:58:59.560Z,100331.32
2018-01-10T14:01:27.924Z,100336.67
2018-01-10T14:03:57.107Z,100337.76
2018-01-10T14:06:26.244Z,100336.05
2018-01-10T14:08:54.638Z,100346.84
2018-01-10T14:11:23.010Z,100347.20
2018-01-10T14:13:51.336Z,100348.06
2018-01-10T14:16:20.684Z,100347.59
2018-01-10T14:18:49.041Z,100355.77
2018-01-10T14:21:18.201Z,100348.00
2018-01-10T14:23:46.623Z,100349.08
2018-01-10T14:26:15.798Z,100345.47
2018-01-10T14:28:44.921Z,100345.52
2018-01-10T14:31:13.243Z,100347.30
2018-01-10T14:33:41.576Z,100348.60
2018-01-10T14:36:09.996Z,100348.50
2018-01-10T14:38:38.435Z,100352.14
2018-01-10T14:41:06.824Z,100346.28
2018-01-10T14:43:35.155Z,100351.66
2018-01-10T14:46:03.501Z,100357.02
2018-01-10T14:48:31.819Z,100352.64
2018-01-10T14:51:00.222Z,100357.41
2018-01-10T14:53:28.545Z,100358.52
2018-01-10T14:55:56.966Z,100356.88
2018-01-10T14:58:25.410Z,100364.50
2018-01-10T15:00:53.817Z,100362.92
2018-01-10T15:03:22.152Z,100365.37
2018-01-10T15:05:50.838Z,100364.77
2018-01-10T15:08:19.191Z,100363.95
2018-01-10T15:10:47.512Z,100371.07
2018-01-10T15:13:15.842Z,100368.52
2018-01-10T15:15:44.187Z,100374.48
2018-01-10T15:18:12.535Z,100375.77
2018-01-10T15:20:40.855Z,100375.78
2018-01-10T15:23:09.944Z,100376.15
2018-01-10T15:25:39.055Z,100374.19
2018-01-10T15:28:07.379Z,100376.14
2018-01-10T15:30:35.733Z,100380.52
2018-01-10T15:33:04.087Z,100372.76
2018-01-10T15:35:33.182Z,100380.20
2018-01-10T15:38:01.509Z,100389.12
2018-01-10T15:40:29.878Z,100389.34
2018-01-10T15:42:58.219Z,100390.69
2018-01-10T15:45:27.323Z,100393.37
2018-01-10T15:47:55.676Z,100398.12
2018-01-10T15:50:24.023Z,100396.56
2018-01-10T15:52:52.379Z,100400.82
2018-01-10T15:55:20.713Z,100392.85
2018-01-10T15:57:49.791Z,100402.91
2018-01-10T16:00:18.136Z,100397.08
2018-01-10T16:02:46.456Z,100393.86
2018-01-10T16:05:15.566Z,100393.67
2018-01-10T16:07:43.896Z,100400.06
2018-01-10T16:10:12.256Z,100401.63
2018-01-10T16:12:40.580Z,100401.12
2018-01-10T16:15:08.932Z,100406.61
2018-01-10T16:17:37.294Z,100403.09
2018-01-10T16:20:05.607Z,100393.45
2018-01-10T16:22:33.976Z,100403.38
2018-01-10T16:25:02.297Z,100396.42
2018-01-10T16:27:30.652Z,100402.02
2018-01-10T16:29:59.723Z,100402.31
2018-01-10T16:32:28.058Z,100395.73
2018-01-10T16:34:56.385Z,100398.92
2018-01-10T16:37:24.760Z,100396.70
2018-01-10T16:39:53.115Z,100395.10
2018-01-10T16:42:21.438Z,100399.45
2018-01-10T16:44:50.579Z,100396.43
2018-01-10T16:47:18.895Z,100402.44
2018-01-10T16:49:47.252Z,100404.72
2018-01-10T16:52:15.591Z,100403.08
2018-01-10T16:54:43.912Z,100408.11
2018-01-10T16:57:12.276Z,100401.80
2018-01-10T16:59:40.612Z,100407.91
2018-01-10T17:02:09.731Z,100414.13
2018-01-10T17:04:38.051Z,100409.31
2018-01-10T17:07:06.408Z,100411.33
2018-01-10T17:09:34.740Z,100411.36
2018-01-10T17:12:03.828Z,100406.30
2018-01-10T17:14:32.187Z,100411.05
2018-01-10T17:17:00.501Z,100412.92
2018-01-10T17:19:29.628Z,100408.23
2018-01-10T17:21:57.959Z,100406.65
2018-01-10T17:24:26.284Z,100412.73
2018-01-10T17:26:54.635Z,100412.53
2018-01-10T17:29:22.960Z,100415.38
2018-01-10T17:31:51.315Z,100416.39
2018-01-10T17:34:19.641Z,100410.95
2018-01-10T17:36:47.966Z,100400.66
2018-01-10T17:39:16.308Z,100410.30
2018-01-10T17:41:46.352Z,100406.66
2018-01-10T17:44:14.681Z,100410.39
2018-01-10T17:46:43.084Z,100412.98
2018-01-10T17:49:12.317Z,100417.19
2018-01-10T17:51:40.694Z,100424.45
2018-01-10T17:54:09.072Z,100419.27
2018-01-10T17:56:37.500Z,100417.49
2018-01-10T17:59:06.681Z,100421.90
2018-01-10T18:01:35.066Z,100413.87
2018-01-10T18:04:03.476Z,100415.93
2018-01-10T18:06:32.692Z,100407.38
2018-01-10T18:09:01.097Z,100411.95
2018-01-10T18:11:29.547Z,100409.14
2018-01-10T18:13:58.093Z,100413.13
2018-01-10T18:16:27.466Z,100426.92
2018-01-10T18:18:56.036Z,100427.57
2018-01-10T18:21:24.722Z,100425.15
2018-01-10T18:23:53.298Z,100423.27
2018-01-10T18:26:21.877Z,100423.65
2018-01-10T18:28:50.528Z,100418.48
2018-01-10T18:31:19.115Z,100428.84
2018-01-10T18:33:47.612Z,100422.70
2018-01-10T18:36:16.187Z,100422.47
2018-01-10T18:38:44.766Z,100429.39
2018-01-10T18:41:13.339Z,100418.70
2018-01-10T18:43:41.935Z,100423.20
2018-01-10T18:46:10.598Z,100419.70
2018-01-10T18:48:39.233Z,100421.48
2018-01-10T18:51:07.886Z,100428.60
2018-01-10T18:53:36.585Z,100425.78
2018-01-10T18:56:05.218Z,100426.23
2018-01-10T18:58:33.902Z,100424.17
2018-01-10T19:01:03.399Z,100416.52
2018-01-10T19:03:32.026Z,100414.33
2018-01-10T19:06:00.645Z,100406.05
2018-01-10T19:08:29.300Z,100404.22
2018-01-10T19:10:57.940Z,100407.47
2018-01-10T19:13:26.599Z,100410.38
2018-01-10T19:15:55.310Z,100412.48
2018-01-10T19:18:23.882Z,100407.95
2018-01-10T19:20:52.446Z,100416.72
2018-01-10T19:23:20.988Z,100416.86
2018-01-10T19:25:49.394Z,100416.70
2018-01-10T19:28:18.716Z,100423.09
2018-01-10T19:33:21.628Z,100429.00
2018-01-10T19:35:49.999Z,100434.91
2018-01-10T19:38:18.464Z,100428.70
2018-01-10T19:40:47.580Z,100434.23
2018-01-10T19:43:15.917Z,100433.98
2018-01-10T19:45:44.284Z,100431.67
2018-01-10T19:48:12.665Z,100431.56
2018-01-10T19:50:41.000Z,100438.44
2018-01-10T19:53:09.377Z,100442.77
2018-01-10T19:55:37.836Z,100437.56
2018-01-10T19:58:06.225Z,100435.30
2018-01-10T20:00:34.592Z,100440.83
2018-01-10T20:03:03.688Z,100434.04
2018-01-10T20:05:32.818Z,100436.96
2018-01-10T20:08:01.157Z,100437.28
2018-01-10T20:10:30.252Z,100428.37
2018-01-10T20:12:59.395Z,100434.19
2018-01-10T20:15:27.725Z,100432.53
2018-01-10T20:17:56.069Z,100435.08
2018-01-10T20:20:24.420Z,100436.47
2018-01-10T20:22:52.738Z,100442.66
2018-01-10T20:25:21.100Z,100445.97
2018-01-10T20:27:49.441Z,100444.58
2018-01-10T20:30:17.795Z,100443.03
2018-01-10T20:32:46.922Z,100442.52
2018-01-10T20:35:15.269Z,100442.68
2018-01-10T20:37:44.421Z,100449.16
2018-01-10T20:40:12.747Z,100447.28
2018-01-10T20:42:41.120Z,100441.19
2018-01-10T20:45:10.216Z,100458.72
2018-01-10T20:47:39.376Z,100453.23
2018-01-10T20:50:07.729Z,100447.40
2018-01-10T20:52:36.076Z,100445.73
2018-01-10T20:55:05.192Z,100445.73
2018-01-10T20:57:33.560Z,100457.28
2018-01-10T21:00:02.667Z,100457.23
2018-01-10T21:02:31.038Z,100454.03
2018-01-10T21:04:59.401Z,100454.47
2018-01-10T21:07:27.736Z,100454.98
2018-01-10T21:09:56.110Z,100447.19
2018-01-10T21:12:25.120Z,100447.91
2018-01-10T21:14:53.465Z,100447.27
2018-01-10T21:17:21.816Z,100454.91
2018-01-10T21:19:50.180Z,100451.98
2018-01-10T21:22:19.268Z,100454.56
2018-01-10T21:24:47.597Z,100458.85
2018-01-10T21:27:15.972Z,100462.52
2018-01-10T21:29:44.309Z,100467.16
2018-01-10T21:32:13.406Z,100469.99
2018-01-10T21:34:42.539Z,100473.70
2018-01-10T21:37:10.872Z,100470.25
2018-01-10T21:39:39.208Z,100472.25
2018-01-10T21:42:07.583Z,100478.43
2018-01-10T21:44:35.912Z,100473.91
2018-01-10T21:47:05.079Z,100477.25
2018-01-10T21:49:33.451Z,100478.90
2018-01-10T21:52:01.861Z,100488.27
2018-01-10T21:54:30.230Z,100481.36
2018-01-10T21:56:58.600Z,100480.89
2018-01-10T21:59:26.972Z,100484.70
2018-01-10T22:01:55.292Z,100481.86
2018-01-10T22:04:23.624Z,100484.83
2018-01-10T22:06:51.976Z,100482.45
2018-01-10T22:09:21.187Z,100480.28
2018-01-10T22:11:49.536Z,100479.94
2018-01-10T22:14:17.906Z,100474.37
2018-01-10T22:16:46.237Z,100474.16
2018-01-10T22:19:14.595Z,100467.50
2018-01-10T22:21:42.933Z,100466.14
2018-01-10T22:24:12.040Z,100467.36
2018-01-10T22:26:41.161Z,100470.80
2018-01-10T22:29:09.496Z,100479.64
2018-01-10T22:31:37.856Z,100481.30
2018-01-10T22:34:06.228Z,100479.70
2018-01-10T22:36:34.568Z,100475.02
2018-01-10T22:39:02.888Z,100479.03
2018-01-10T22:41:31.265Z,100476.48
2018-01-10T22:43:59.588Z,100481.34
2018-01-10T22:46:27.927Z,100483.86
2018-01-10T22:48:56.284Z,100484.59
2018-01-10T22:51:24.600Z,100475.27
2018-01-10T22:53:52.964Z,100479.12
2018-01-10T22:56:21.283Z,100484.84
2018-01-10T22:58:49.628Z,100485.35
2018-01-10T23:01:17.985Z,100491.63
2018-01-10T23:03:46.333Z,100491.90
2018-01-10T23:06:14.670Z,100500.74
2018-01-10T23:08:43.805Z,100496.02
2018-01-10T23:11:12.121Z,100502.47
2018-01-10T23:13:40.445Z,100509.40
2018-01-10T23:16:08.800Z,100505.93
2018-01-10T23:18:37.895Z,100513.23
2018-01-10T23:21:07.045Z,100512.41
2018-01-10T23:23:35.392Z,100511.33
2018-01-10T23:26:03.720Z,100508.22
2018-01-10T23:28:32.073Z,100504.55
2018-01-10T23:31:00.396Z,100507.16
2018-01-10T23:33:28.747Z,100507.70
2018-01-10T23:35:57.083Z,100511.56
2018-01-10T23:38:25.403Z,100511.71
2018-01-10T23:40:53.759Z,100517.22
2018-01-10T23:43:22.109Z,100522.80
2018-01-10T23:45:50.440Z,100515.59
2018-01-10T23:48:18.792Z,100513.50
2018-01-10T23:50:47.112Z,100505.30
2018-01-10T23:53:15.469Z,100503.62
2018-01-10T23:55:43.840Z,100504.52
2018-01-10T23:58:12.187Z,100507.70
